createdAt,value
2023-05-10T00:05:22.842Z,2
2023-05-10T00:07:06.551Z,1
2023-05-10T00:08:50.249Z,1
2023-05-10T00:10:33.949Z,1
2023-05-10T00:14:01.356Z,2
2023-05-10T00:15:45.059Z,1
2023-05-10T00:19:12.461Z,1
2023-05-10T00:20:56.161Z,0
2023-05-10T00:22:46.860Z,2
2023-05-10T00:24:30.560Z,1
2023-05-10T00:26:07.265Z,1
2023-05-10T00:27:50.970Z,1
2023-05-10T00:29:34.752Z,1
2023-05-10T00:31:18.392Z,1
2023-05-10T00:33:02.076Z,2
2023-05-10T00:34:45.773Z,2
2023-05-10T00:36:36.484Z,1
2023-05-10T00:38:13.187Z,1
2023-05-10T00:39:56.902Z,1
2023-05-10T00:41:40.586Z,1
2023-05-10T00:43:31.291Z,1
2023-05-10T00:45:08.008Z,1
2023-05-10T00:46:51.695Z,1
2023-05-10T00:48:35.394Z,0
2023-05-10T00:52:02.800Z,1
2023-05-10T01:00:41.313Z,1
2023-05-10T01:02:25.008Z,1
2023-05-10T01:09:19.818Z,1
2023-05-10T01:12:47.227Z,1
2023-05-10T01:16:14.628Z,1
2023-05-10T01:21:25.742Z,1
2023-05-10T01:23:16.446Z,1
2023-05-10T01:24:53.136Z,1
2023-05-10T01:26:43.837Z,1
2023-05-10T01:28:20.543Z,2
2023-05-10T01:30:04.256Z,0
2023-05-10T01:31:47.971Z,1
2023-05-10T01:33:38.657Z,1
2023-05-10T01:35:15.352Z,2
2023-05-10T01:36:59.061Z,2
2023-05-10T01:40:26.450Z,1
2023-05-10T01:42:10.148Z,1
2023-05-10T01:43:53.855Z,2
2023-05-10T01:49:04.965Z,1
2023-05-10T01:50:48.671Z,1
2023-05-10T01:52:39.371Z,1
2023-05-10T01:54:16.132Z,1
2023-05-10T01:56:06.768Z,1
2023-05-10T01:57:43.463Z,1
2023-05-10T02:01:10.865Z,1
2023-05-10T02:03:01.634Z,2
2023-05-10T02:04:45.273Z,1
2023-05-10T02:06:29.002Z,1
2023-05-10T02:08:05.711Z,1
2023-05-10T02:09:49.372Z,2
2023-05-10T02:11:33.083Z,1
2023-05-10T02:13:16.780Z,1
2023-05-10T02:15:00.479Z,0
2023-05-10T02:16:44.195Z,1
2023-05-10T02:18:27.892Z,1
2023-05-10T02:23:38.989Z,1
2023-05-10T02:27:06.393Z,2
2023-05-10T02:28:50.090Z,1
2023-05-10T02:32:24.501Z,1
2023-05-10T02:34:01.197Z,1
2023-05-10T02:35:44.898Z,2
2023-05-10T02:37:35.597Z,1
2023-05-10T02:39:19.299Z,1
2023-05-10T02:41:03.001Z,0
2023-05-10T02:44:23.406Z,1
2023-05-10T02:46:07.099Z,1
2023-05-10T02:49:48.533Z,1
2023-05-10T02:51:18.257Z,1
2023-05-10T02:53:15.929Z,1
2023-05-10T02:54:59.644Z,1
2023-05-10T02:56:36.314Z,1
2023-05-10T02:58:13.025Z,1
2023-05-10T02:59:56.727Z,1
2023-05-10T03:01:40.447Z,1
2023-05-10T03:03:38.187Z,2
2023-05-10T03:05:07.825Z,1
2023-05-10T03:06:51.581Z,1
2023-05-10T03:08:35.240Z,1
2023-05-10T03:12:02.627Z,1
2023-05-10T03:13:46.329Z,1
2023-05-10T03:15:30.042Z,1
2023-05-10T03:17:13.739Z,1
2023-05-10T03:18:57.445Z,1
2023-05-10T03:22:31.894Z,1
2023-05-10T03:24:15.555Z,1
2023-05-10T03:25:59.253Z,1
2023-05-10T03:27:42.948Z,1
2023-05-10T03:29:19.654Z,1
2023-05-10T03:31:10.368Z,2
2023-05-10T03:32:54.058Z,1
2023-05-10T03:36:21.464Z,2
2023-05-10T03:37:58.165Z,3
2023-05-10T03:39:48.872Z,2
2023-05-10T03:41:25.575Z,2
2023-05-10T03:43:09.269Z,3
2023-05-10T03:44:52.979Z,4
2023-05-10T03:46:36.681Z,4
2023-05-10T03:48:27.382Z,4
2023-05-10T03:50:04.087Z,4
2023-05-10T03:51:47.784Z,4
2023-05-10T03:53:38.493Z,5
2023-05-10T03:55:15.188Z,5
2023-05-10T03:57:05.886Z,6
2023-05-10T03:58:42.593Z,8
2023-05-10T04:00:26.293Z,9
2023-05-10T04:02:16.991Z,13
2023-05-10T04:03:53.697Z,15
2023-05-10T04:05:37.403Z,19
2023-05-10T04:07:28.113Z,23
2023-05-10T04:09:11.885Z,27
2023-05-10T04:10:48.515Z,39
2023-05-10T04:12:32.227Z,45
2023-05-10T04:14:15.942Z,48
2023-05-10T04:15:59.610Z,54
2023-05-10T04:17:43.312Z,58
2023-05-10T04:19:27.016Z,61
2023-05-10T04:21:10.713Z,60
2023-05-10T04:22:54.418Z,65
2023-05-10T04:24:38.196Z,67
2023-05-10T04:26:21.843Z,67
2023-05-10T04:28:05.527Z,70
2023-05-10T04:29:49.223Z,74
2023-05-10T04:33:16.630Z,89
2023-05-10T04:35:00.396Z,107
2023-05-10T04:36:44.026Z,124
2023-05-10T04:38:27.823Z,138
2023-05-10T04:40:11.430Z,152
2023-05-10T04:41:55.139Z,195
2023-05-10T04:43:38.840Z,177
2023-05-10T04:45:22.518Z,175
2023-05-10T04:47:06.238Z,164
2023-05-10T04:48:49.937Z,178
2023-05-10T04:50:33.718Z,179
2023-05-10T04:52:17.345Z,180
2023-05-10T04:54:01.051Z,192
2023-05-10T04:55:44.752Z,202
2023-05-10T04:57:28.466Z,218
2023-05-10T04:59:12.154Z,231
2023-05-10T05:00:55.888Z,238
2023-05-10T05:02:39.560Z,252
2023-05-10T05:07:50.690Z,282
2023-05-10T05:09:34.373Z,279
2023-05-10T05:16:29.185Z,319
2023-05-10T05:18:12.904Z,305
2023-05-10T05:19:56.586Z,298
2023-05-10T05:21:40.283Z,305
2023-05-10T05:23:23.992Z,312
2023-05-10T05:25:07.705Z,318
2023-05-10T05:26:51.411Z,322
2023-05-10T05:28:35.137Z,329
2023-05-10T05:30:18.805Z,336
2023-05-10T05:32:02.507Z,335
2023-05-10T05:33:46.242Z,322
2023-05-10T05:35:29.960Z,342
2023-05-10T05:37:13.665Z,326
2023-05-10T05:38:57.348Z,329
2023-05-10T05:40:41.091Z,337
2023-05-10T05:42:24.722Z,321
2023-05-10T05:44:08.526Z,325
2023-05-10T05:45:52.251Z,330
2023-05-10T05:47:35.815Z,356
2023-05-10T05:49:19.566Z,376
2023-05-10T05:51:03.304Z,393
2023-05-10T05:52:46.926Z,410
2023-05-10T05:54:30.675Z,434
2023-05-10T05:56:14.442Z,455
2023-05-10T05:57:58.081Z,459
2023-05-10T05:59:41.863Z,475
2023-05-10T06:01:25.557Z,476
2023-05-10T06:03:09.251Z,466
2023-05-10T06:04:52.928Z,458
2023-05-10T06:06:36.723Z,467
2023-05-10T06:08:20.255Z,500
2023-05-10T06:10:03.984Z,536
2023-05-10T06:11:47.637Z,547
2023-05-10T06:13:31.477Z,527
2023-05-10T06:16:58.749Z,440
2023-05-10T06:18:42.536Z,441
2023-05-10T06:22:09.868Z,453
2023-05-10T06:23:53.618Z,449
2023-05-10T06:25:37.249Z,418
2023-05-10T06:30:48.448Z,388
2023-05-10T06:32:32.135Z,388
2023-05-10T06:34:22.781Z,383
2023-05-10T06:35:59.493Z,390
2023-05-10T06:37:43.284Z,409
2023-05-10T06:39:26.859Z,415
2023-05-10T06:41:17.709Z,409
2023-05-10T06:42:54.336Z,425
2023-05-10T06:44:37.971Z,402
2023-05-10T06:46:28.691Z,389
2023-05-10T06:48:05.445Z,399
2023-05-10T06:49:49.141Z,420
2023-05-10T06:51:32.833Z,423
2023-05-10T06:53:16.540Z,414
2023-05-10T06:55:00.201Z,432
2023-05-10T06:56:43.853Z,468
2023-05-10T07:00:11.427Z,538
2023-05-10T07:03:38.826Z,676
2023-05-10T07:05:22.393Z,713
2023-05-10T07:07:06.154Z,740
2023-05-10T07:08:49.903Z,741
2023-05-10T07:10:40.646Z,741
2023-05-10T07:12:17.190Z,741
2023-05-10T07:14:07.994Z,739
2023-05-10T07:15:44.770Z,741
2023-05-10T07:17:28.346Z,741
2023-05-10T07:19:18.984Z,740
2023-05-10T07:20:55.799Z,740
2023-05-10T07:22:39.408Z,740
2023-05-10T07:24:23.089Z,740
2023-05-10T07:27:50.493Z,740
2023-05-10T07:29:34.303Z,740
2023-05-10T07:33:01.707Z,741
2023-05-10T07:34:45.315Z,741
2023-05-10T07:36:29.028Z,738
2023-05-10T07:41:40.110Z,741
2023-05-10T07:43:23.820Z,740
2023-05-10T07:45:07.518Z,740
2023-05-10T07:46:51.205Z,742
2023-05-10T07:48:34.941Z,740
2023-05-10T07:50:18.608Z,732
2023-05-10T07:52:02.328Z,739
2023-05-10T07:53:46.125Z,740
2023-05-10T07:55:29.710Z,741
2023-05-10T07:57:20.435Z,741
2023-05-10T08:02:24.522Z,741
2023-05-10T08:04:08.263Z,740
2023-05-10T08:05:58.936Z,740
2023-05-10T08:07:35.630Z,740
2023-05-10T08:09:19.427Z,741
2023-05-10T08:11:03.052Z,740
2023-05-10T08:12:46.732Z,741
2023-05-10T08:14:37.431Z,741
2023-05-10T08:16:14.131Z,740
2023-05-10T08:17:57.897Z,741
2023-05-10T08:19:41.625Z,741
2023-05-10T08:21:32.237Z,740
2023-05-10T08:23:08.960Z,740
2023-05-10T08:24:52.645Z,741
2023-05-10T08:26:36.389Z,734
2023-05-10T08:28:20.239Z,741
2023-05-10T08:30:03.830Z,740
2023-05-10T08:31:47.508Z,742
2023-05-10T08:33:31.322Z,742
2023-05-10T08:35:14.844Z,740
2023-05-10T08:36:58.686Z,740
2023-05-10T08:38:42.430Z,741
2023-05-10T08:40:26.034Z,732
2023-05-10T08:42:09.889Z,741
2023-05-10T08:43:53.577Z,741
2023-05-10T08:45:37.259Z,740
2023-05-10T08:49:04.572Z,741
2023-05-10T08:50:48.163Z,740
2023-05-10T08:52:32.077Z,741
2023-05-10T08:54:15.563Z,741
2023-05-10T08:55:59.504Z,741
2023-05-10T08:57:43.033Z,741
2023-05-10T08:59:26.856Z,740
2023-05-10T09:01:10.401Z,741
2023-05-10T09:02:54.080Z,741
2023-05-10T09:04:37.860Z,741
2023-05-10T09:06:21.538Z,740
2023-05-10T09:09:48.972Z,740
2023-05-10T09:11:32.651Z,741
2023-05-10T09:13:16.277Z,740
2023-05-10T09:14:59.989Z,740
2023-05-10T09:16:43.693Z,740
2023-05-10T09:18:27.412Z,741
2023-05-10T09:21:54.805Z,705
2023-05-10T09:23:38.518Z,741
2023-05-10T09:25:22.226Z,741
2023-05-10T09:27:05.907Z,741
2023-05-10T09:28:49.730Z,740
2023-05-10T09:30:33.351Z,741
2023-05-10T09:32:17.121Z,741
2023-05-10T09:34:00.720Z,741
2023-05-10T09:35:44.413Z,741
2023-05-10T09:37:28.108Z,740
2023-05-10T09:39:11.849Z,740
2023-05-10T09:40:55.509Z,740
2023-05-10T09:42:39.215Z,741
2023-05-10T09:44:22.921Z,740
2023-05-10T09:46:06.613Z,741
2023-05-10T09:47:50.361Z,742
2023-05-10T09:49:34.026Z,741
2023-05-10T09:51:17.733Z,741
2023-05-10T09:53:01.430Z,732
2023-05-10T09:54:45.144Z,741
2023-05-10T09:56:28.840Z,742
2023-05-10T09:58:12.552Z,741
2023-05-10T09:59:56.230Z,740
2023-05-10T10:01:39.941Z,741
2023-05-10T10:03:23.768Z,740
2023-05-10T10:05:07.394Z,741
2023-05-10T10:06:51.041Z,741
2023-05-10T10:08:34.746Z,741
2023-05-10T10:10:18.452Z,741
2023-05-10T10:12:02.169Z,741
2023-05-10T10:13:45.863Z,741
2023-05-10T10:15:29.590Z,740
2023-05-10T10:17:13.260Z,741
2023-05-10T10:20:40.689Z,740
2023-05-10T10:24:08.071Z,741
2023-05-10T10:25:51.766Z,742
2023-05-10T10:29:19.187Z,738
2023-05-10T10:31:02.936Z,741
2023-05-10T10:32:46.631Z,741
2023-05-10T10:34:30.448Z,742
2023-05-10T10:36:14.070Z,740
2023-05-10T10:37:57.739Z,740
2023-05-10T10:39:41.403Z,742
2023-05-10T10:41:25.101Z,741
2023-05-10T10:43:08.782Z,740
2023-05-10T10:46:36.241Z,741
2023-05-10T10:50:03.753Z,742
2023-05-10T10:51:47.430Z,732
2023-05-10T10:53:31.123Z,742
2023-05-10T10:55:14.707Z,742
2023-05-10T10:58:42.102Z,740
2023-05-10T11:03:53.278Z,741
2023-05-10T11:05:36.994Z,741
2023-05-10T11:07:20.658Z,741
2023-05-10T11:09:04.385Z,741
2023-05-10T11:10:48.130Z,742
2023-05-10T11:12:31.736Z,741
2023-05-10T11:14:15.526Z,739
2023-05-10T11:15:59.188Z,741
2023-05-10T11:17:42.898Z,742
2023-05-10T11:19:26.625Z,741
2023-05-10T11:22:53.934Z,741
2023-05-10T11:24:37.629Z,742
2023-05-10T11:26:21.330Z,741
2023-05-10T11:28:12.029Z,740
2023-05-10T11:29:48.734Z,741
2023-05-10T11:31:32.464Z,741
2023-05-10T11:33:16.172Z,741
2023-05-10T11:35:06.870Z,741
2023-05-10T11:36:43.545Z,740
2023-05-10T11:38:27.263Z,741
2023-05-10T11:40:10.982Z,742
2023-05-10T11:47:05.767Z,742
2023-05-10T11:50:33.158Z,740
2023-05-10T11:52:16.863Z,741
2023-05-10T11:54:00.568Z,742
2023-05-10T11:55:51.287Z,743
2023-05-10T11:57:27.981Z,741
2023-05-10T11:59:18.672Z,732
2023-05-10T12:02:39.105Z,741
2023-05-10T12:04:22.784Z,741
2023-05-10T12:06:06.487Z,741
2023-05-10T12:07:50.205Z,741
2023-05-10T12:09:33.883Z,742
2023-05-10T12:11:17.588Z,741
2023-05-10T12:13:01.275Z,741
2023-05-10T12:14:44.989Z,742
2023-05-10T12:18:12.391Z,741
2023-05-10T12:19:56.108Z,739
2023-05-10T12:21:39.801Z,741
2023-05-10T12:23:23.517Z,742
2023-05-10T12:25:07.208Z,741
2023-05-10T12:26:50.961Z,740
2023-05-10T12:28:34.611Z,742
2023-05-10T12:30:25.314Z,741
2023-05-10T12:32:02.020Z,741
2023-05-10T12:33:45.711Z,741
2023-05-10T12:35:29.435Z,742
2023-05-10T12:37:20.122Z,742
2023-05-10T12:40:40.621Z,740
2023-05-10T12:42:24.245Z,741
2023-05-10T12:44:07.926Z,732
2023-05-10T12:45:51.632Z,724
2023-05-10T12:47:42.352Z,713
2023-05-10T12:49:19.181Z,696
2023-05-10T12:51:02.735Z,694
2023-05-10T12:54:30.290Z,736
2023-05-10T12:56:14.002Z,741
2023-05-10T12:58:04.554Z,741
2023-05-10T13:01:31.981Z,742
2023-05-10T13:03:08.668Z,741
2023-05-10T13:04:52.416Z,741
2023-05-10T13:06:36.056Z,731
2023-05-10T13:08:19.756Z,741
2023-05-10T13:10:03.469Z,741
2023-05-10T13:11:54.217Z,741
2023-05-10T13:15:14.571Z,741
2023-05-10T13:16:58.383Z,741
2023-05-10T13:18:42.015Z,741
2023-05-10T13:20:25.704Z,741
2023-05-10T13:22:09.388Z,741
2023-05-10T13:23:53.097Z,741
2023-05-10T13:25:36.792Z,741
2023-05-10T13:27:20.490Z,741
2023-05-10T13:29:04.240Z,740
2023-05-10T13:30:47.912Z,741
2023-05-10T13:32:31.599Z,741
2023-05-10T13:36:06.107Z,741
2023-05-10T13:37:42.717Z,739
2023-05-10T13:39:33.466Z,740
2023-05-10T13:42:53.829Z,741
2023-05-10T13:44:37.597Z,741
2023-05-10T13:46:28.303Z,742
2023-05-10T13:49:48.619Z,741
2023-05-10T13:51:32.364Z,741
2023-05-10T13:53:23.043Z,741
2023-05-10T13:56:50.426Z,741
2023-05-10T13:58:34.124Z,742
2023-05-10T14:00:17.845Z,732
2023-05-10T14:05:21.937Z,742
2023-05-10T14:12:16.753Z,742
2023-05-10T14:31:17.583Z,741
2023-05-10T14:36:28.569Z,741
2023-05-10T14:39:55.997Z,740
2023-05-10T14:41:46.727Z,741
2023-05-10T14:46:57.797Z,741
2023-05-10T14:53:45.649Z,741
2023-05-10T14:55:36.347Z,741
2023-05-10T15:00:40.474Z,741
2023-05-10T15:02:31.192Z,741
2023-05-10T15:09:26.041Z,741
2023-05-10T15:14:30.030Z,741
2023-05-10T15:16:20.800Z,741
2023-05-10T15:21:31.814Z,739
2023-05-10T15:24:52.226Z,741
2023-05-10T15:26:35.913Z,742
2023-05-10T15:28:26.645Z,742
2023-05-10T15:30:10.383Z,741
2023-05-10T15:31:47.024Z,741
2023-05-10T15:35:21.569Z,740
2023-05-10T15:36:58.217Z,741
2023-05-10T15:38:41.915Z,741
2023-05-10T15:43:53.003Z,735
2023-05-10T15:45:36.654Z,741
2023-05-10T15:49:11.163Z,741
2023-05-10T15:56:05.950Z,742
2023-05-10T15:59:26.274Z,741
2023-05-10T16:04:44.378Z,741
2023-05-10T16:06:21.113Z,735
2023-05-10T16:18:26.991Z,704
2023-05-10T16:20:10.825Z,658
2023-05-10T16:27:12.546Z,489
2023-05-10T16:32:16.635Z,382
2023-05-10T16:35:44.020Z,331
2023-05-10T16:47:49.946Z,200
2023-05-10T16:54:51.884Z,166
2023-05-10T16:58:12.145Z,138
2023-05-10T17:03:23.261Z,111
2023-05-10T17:05:07.015Z,104
2023-05-10T17:08:41.448Z,101
2023-05-10T17:10:18.067Z,101
2023-05-10T17:12:01.767Z,100
2023-05-10T17:17:12.968Z,98
2023-05-10T17:19:03.579Z,99
2023-05-10T17:20:47.422Z,101
2023-05-10T17:22:24.073Z,104
2023-05-10T17:24:07.688Z,109
2023-05-10T17:25:58.381Z,112
2023-05-10T17:29:18.785Z,116
2023-05-10T17:31:02.528Z,120
2023-05-10T17:32:46.199Z,127
2023-05-10T17:36:13.593Z,138
2023-05-10T17:37:57.403Z,146
2023-05-10T17:39:48.021Z,148
2023-05-10T17:41:24.774Z,145
2023-05-10T17:43:08.420Z,142
2023-05-10T17:44:52.119Z,139
2023-05-10T17:48:26.594Z,126
2023-05-10T17:50:03.207Z,118
2023-05-10T17:51:46.909Z,115
2023-05-10T17:53:37.660Z,111
2023-05-10T17:55:21.322Z,109
2023-05-10T17:56:58.018Z,107
2023-05-10T17:58:41.773Z,104
2023-05-10T18:03:52.839Z,103
2023-05-10T18:05:36.534Z,101
2023-05-10T18:07:20.251Z,99
2023-05-10T18:12:31.409Z,89
2023-05-10T18:14:15.091Z,85
2023-05-10T18:17:49.428Z,78
2023-05-10T18:19:26.136Z,76
2023-05-10T18:21:10.046Z,74
2023-05-10T18:22:53.730Z,73
2023-05-10T18:24:44.441Z,76
2023-05-10T18:26:28.079Z,92
2023-05-10T18:29:55.337Z,96
2023-05-10T18:31:39.051Z,89
2023-05-10T18:33:15.783Z,92
2023-05-10T18:34:59.439Z,118
2023-05-10T18:36:50.158Z,125
2023-05-10T18:38:34.021Z,119
2023-05-10T18:40:10.570Z,114
2023-05-10T18:41:54.318Z,93
2023-05-10T18:43:44.976Z,77
2023-05-10T18:45:21.852Z,71
2023-05-10T18:47:05.391Z,65
2023-05-10T18:48:49.060Z,48
2023-05-10T18:50:39.823Z,32
2023-05-10T18:52:23.490Z,21
2023-05-10T18:54:00.229Z,14
2023-05-10T18:57:34.622Z,8
2023-05-10T18:59:18.334Z,5
2023-05-10T19:00:54.959Z,5
2023-05-10T19:02:38.659Z,4
2023-05-10T19:04:22.365Z,4
2023-05-10T19:06:06.066Z,3
2023-05-10T19:07:49.889Z,2
2023-05-10T19:09:33.522Z,3
2023-05-10T19:11:17.166Z,2
2023-05-10T19:13:01.025Z,2
2023-05-10T19:14:44.579Z,1
2023-05-10T19:16:28.708Z,2
2023-05-10T19:18:12.655Z,2
2023-05-10T19:19:56.218Z,2
2023-05-10T19:21:39.923Z,1
2023-05-10T19:23:24.314Z,1
2023-05-10T19:25:06.842Z,1
2023-05-10T19:26:50.687Z,0
2023-05-10T19:28:34.209Z,1
2023-05-10T19:30:18.030Z,1
2023-05-10T19:32:01.590Z,2
2023-05-10T19:33:45.402Z,1
2023-05-10T19:35:28.996Z,2
2023-05-10T19:37:12.830Z,1
2023-05-10T19:38:56.383Z,1
2023-05-10T19:42:23.796Z,1
2023-05-10T19:44:07.501Z,1
2023-05-10T19:45:51.294Z,1
2023-05-10T19:47:35.044Z,1
2023-05-10T19:49:18.601Z,1
2023-05-10T19:51:02.300Z,1
2023-05-10T19:52:46.012Z,0
2023-05-10T19:56:13.596Z,1
2023-05-10T19:57:57.299Z,1
2023-05-10T19:59:40.912Z,0
2023-05-10T20:01:24.649Z,1
2023-05-10T20:03:08.276Z,1
2023-05-10T20:04:52.051Z,1
2023-05-10T20:06:35.798Z,1
2023-05-10T20:08:19.428Z,1
2023-05-10T20:10:03.108Z,1
2023-05-10T20:11:46.716Z,1
2023-05-10T20:13:30.482Z,0
2023-05-10T20:15:14.130Z,1
2023-05-10T20:16:57.847Z,1
2023-05-10T20:18:41.648Z,1
2023-05-10T20:20:25.330Z,2
2023-05-10T20:22:08.945Z,0
2023-05-10T20:23:52.630Z,1
2023-05-10T20:25:36.370Z,1
2023-05-10T20:27:20.039Z,0
2023-05-10T20:29:03.837Z,1
2023-05-10T20:30:47.437Z,2
2023-05-10T20:32:31.137Z,1
2023-05-10T20:34:14.831Z,2
2023-05-10T20:35:58.553Z,1
2023-05-10T20:37:42.268Z,10
2023-05-10T20:39:25.943Z,10
2023-05-10T20:42:53.380Z,10
2023-05-10T20:44:37.059Z,10
2023-05-10T20:46:20.744Z,9
2023-05-10T20:48:04.464Z,11
2023-05-10T20:49:48.161Z,10
2023-05-10T20:53:15.553Z,1
2023-05-10T20:54:59.278Z,1
2023-05-10T20:56:42.971Z,2
2023-05-10T20:58:26.668Z,2
2023-05-10T21:00:10.354Z,1
2023-05-10T21:03:37.773Z,1
2023-05-10T21:05:21.475Z,0
2023-05-10T21:07:05.170Z,1
2023-05-10T21:08:48.956Z,1
2023-05-10T21:10:32.580Z,2
2023-05-10T21:12:16.276Z,1
2023-05-10T21:13:59.984Z,1
2023-05-10T21:15:43.817Z,1
2023-05-10T21:17:27.397Z,1
2023-05-10T21:19:11.104Z,2
2023-05-10T21:20:54.864Z,2
2023-05-10T21:22:38.503Z,1
2023-05-10T21:24:22.192Z,1
2023-05-10T21:26:06.003Z,2
2023-05-10T21:27:49.661Z,1
2023-05-10T21:29:33.338Z,1
2023-05-10T21:31:17.004Z,1
2023-05-10T21:33:00.727Z,1
2023-05-10T21:34:44.423Z,1
2023-05-10T21:36:28.142Z,2
2023-05-10T21:38:11.960Z,10
2023-05-10T21:39:55.517Z,10
2023-05-10T21:41:39.275Z,9
2023-05-10T21:43:22.913Z,1
2023-05-10T21:45:06.653Z,0
2023-05-10T21:46:50.317Z,0
2023-05-10T21:48:34.024Z,1
2023-05-10T21:50:17.710Z,2
2023-05-10T21:52:01.421Z,2
2023-05-10T21:53:45.234Z,1
2023-05-10T21:55:28.820Z,1
2023-05-10T21:57:12.606Z,1
2023-05-10T21:58:56.224Z,1
2023-05-10T22:00:39.966Z,0
2023-05-10T22:02:23.633Z,1
2023-05-10T22:04:07.350Z,1
2023-05-10T22:05:51.069Z,1
2023-05-10T22:07:34.743Z,1
2023-05-10T22:09:18.447Z,1
2023-05-10T22:11:02.134Z,1
2023-05-10T22:12:45.842Z,1
2023-05-10T22:14:29.547Z,1
2023-05-10T22:17:56.952Z,1
2023-05-10T22:19:40.655Z,1
2023-05-10T22:21:24.384Z,1
2023-05-10T22:23:08.087Z,9
2023-05-10T22:24:51.806Z,10
2023-05-10T22:26:35.444Z,8
2023-05-10T22:28:19.174Z,0
2023-05-10T22:30:02.891Z,1
2023-05-10T22:31:46.548Z,1
2023-05-10T22:33:30.318Z,1
2023-05-10T22:35:13.958Z,1
2023-05-10T22:36:57.660Z,1
2023-05-10T22:38:41.402Z,1
2023-05-10T22:40:25.058Z,9
2023-05-10T22:42:08.764Z,9
2023-05-10T22:43:52.474Z,10
2023-05-10T22:45:36.166Z,1
2023-05-10T22:49:03.578Z,1
2023-05-10T22:50:47.287Z,1
2023-05-10T22:52:30.982Z,0
2023-05-10T22:54:14.684Z,0
2023-05-10T22:55:58.399Z,1
2023-05-10T22:57:42.090Z,1
2023-05-10T22:59:25.793Z,1
2023-05-10T23:01:09.489Z,1
2023-05-10T23:02:53.203Z,1
2023-05-10T23:04:36.905Z,1
2023-05-10T23:06:20.600Z,1
2023-05-10T23:08:04.319Z,1
2023-05-10T23:09:48.031Z,1
2023-05-10T23:11:31.703Z,1
2023-05-10T23:13:15.392Z,1
2023-05-10T23:14:59.099Z,0
2023-05-10T23:16:42.805Z,1
2023-05-10T23:18:26.517Z,1
2023-05-10T23:20:10.235Z,0
2023-05-10T23:21:53.915Z,2
2023-05-10T23:23:37.615Z,1
2023-05-10T23:25:21.317Z,1
2023-05-10T23:27:05.010Z,1
2023-05-10T23:28:48.717Z,1
2023-05-10T23:30:32.425Z,2
2023-05-10T23:32:16.121Z,1
2023-05-10T23:33:59.826Z,1
2023-05-10T23:35:43.527Z,1
2023-05-10T23:37:27.230Z,2
2023-05-10T23:39:10.932Z,1
2023-05-10T23:40:54.640Z,2
2023-05-10T23:42:38.341Z,1
2023-05-10T23:44:22.035Z,1
2023-05-10T23:46:05.744Z,0
2023-05-10T23:47:49.447Z,1
2023-05-10T23:49:33.143Z,1
2023-05-10T23:51:16.848Z,0
2023-05-10T23:53:00.542Z,1
2023-05-10T23:54:44.247Z,2
2023-05-10T23:56:27.962Z,2
2023-05-10T23:58:11.655Z,1
2023-05-10T23:59:55.361Z,0
